sensor_id;sensor_type;location;lat;lon;timestamp;pressure;altitude;pressure_sealevel;temperature;humidity
64253;BME280;50592;52.958;-7.470;2023-04-21T00:01:29;100854.03;;;7.29;100.00
64253;BME280;50592;52.958;-7.470;2023-04-21T00:03:56;100850.34;;;7.31;100.00
64253;BME280;50592;52.958;-7.470;2023-04-21T00:06:22;100846.78;;;7.32;100.00
64253;BME280;50592;52.958;-7.470;2023-04-21T00:08:48;100842.56;;;7.30;100.00
64253;BME280;50592;52.958;-7.470;2023-04-21T00:11:14;100837.53;;;7.27;100.00
64253;BME280;50592;52.958;-7.470;2023-04-21T00:13:39;100831.41;;;7.26;100.00
64253;BME280;50592;52.958;-7.470;2023-04-21T00:16:05;100832.25;;;7.27;100.00
64253;BME280;50592;52.958;-7.470;2023-04-21T00:18:31;100835.13;;;7.24;100.00
64253;BME280;50592;52.958;-7.470;2023-04-21T00:20:56;100838.59;;;7.24;100.00
64253;BME280;50592;52.958;-7.470;2023-04-21T00:23:22;100836.31;;;7.19;100.00
64253;BME280;50592;52.958;-7.470;2023-04-21T00:25:48;100838.53;;;7.13;100.00
64253;BME280;50592;52.958;-7.470;2023-04-21T00:28:13;100829.44;;;7.05;100.00
64253;BME280;50592;52.958;-7.470;2023-04-21T00:30:39;100828.06;;;7.00;100.00
64253;BME280;50592;52.958;-7.470;2023-04-21T00:33:05;100832.09;;;6.92;100.00
64253;BME280;50592;52.958;-7.470;2023-04-21T00:35:30;100828.13;;;6.87;100.00
64253;BME280;50592;52.958;-7.470;2023-04-21T00:37:56;100832.25;;;6.78;100.00
64253;BME280;50592;52.958;-7.470;2023-04-21T00:40:22;100829.22;;;6.71;100.00
64253;BME280;50592;52.958;-7.470;2023-04-21T00:42:47;100828.00;;;6.64;100.00
64253;BME280;50592;52.958;-7.470;2023-04-21T00:45:13;100829.47;;;6.55;100.00
64253;BME280;50592;52.958;-7.470;2023-04-21T00:47:41;100816.06;;;6.47;100.00
64253;BME280;50592;52.958;-7.470;2023-04-21T00:50:10;100822.66;;;6.39;100.00
64253;BME280;50592;52.958;-7.470;2023-04-21T00:52:38;100820.69;;;6.30;100.00
64253;BME280;50592;52.958;-7.470;2023-04-21T00:55:04;100817.53;;;6.25;100.00
64253;BME280;50592;52.958;-7.470;2023-04-21T00:57:30;100822.19;;;6.21;100.00
64253;BME280;50592;52.958;-7.470;2023-04-21T00:59:56;100820.69;;;6.17;100.00
64253;BME280;50592;52.958;-7.470;2023-04-21T01:02:23;100830.47;;;6.15;100.00
64253;BME280;50592;52.958;-7.470;2023-04-21T01:04:49;100833.50;;;6.08;100.00
64253;BME280;50592;52.958;-7.470;2023-04-21T01:07:14;100828.53;;;6.04;100.00
64253;BME280;50592;52.958;-7.470;2023-04-21T01:09:40;100833.19;;;6.00;100.00
64253;BME280;50592;52.958;-7.470;2023-04-21T01:12:07;100842.63;;;6.03;100.00
64253;BME280;50592;52.958;-7.470;2023-04-21T01:14:37;100826.03;;;6.02;100.00
64253;BME280;50592;52.958;-7.470;2023-04-21T01:17:03;100827.22;;;6.11;100.00
64253;BME280;50592;52.958;-7.470;2023-04-21T01:19:33;100832.03;;;6.17;100.00
64253;BME280;50592;52.958;-7.470;2023-04-21T01:22:00;100835.91;;;6.25;100.00
64253;BME280;50592;52.958;-7.470;2023-04-21T01:24:35;100831.94;;;6.32;100.00
64253;BME280;50592;52.958;-7.470;2023-04-21T01:27:02;100844.63;;;6.38;100.00
64253;BME280;50592;52.958;-7.470;2023-04-21T01:29:31;100842.81;;;6.39;100.00
64253;BME280;50592;52.958;-7.470;2023-04-21T01:31:56;100844.63;;;6.38;100.00
64253;BME280;50592;52.958;-7.470;2023-04-21T01:34:23;100840.41;;;6.36;100.00
64253;BME280;50592;52.958;-7.470;2023-04-21T01:36:49;100845.78;;;6.34;100.00
64253;BME280;50592;52.958;-7.470;2023-04-21T01:39:14;100841.47;;;6.33;100.00
64253;BME280;50592;52.958;-7.470;2023-04-21T01:41:40;100844.09;;;6.33;100.00
64253;BME280;50592;52.958;-7.470;2023-04-21T01:44:06;100832.75;;;6.32;100.00
64253;BME280;50592;52.958;-7.470;2023-04-21T01:46:32;100832.88;;;6.31;100.00
64253;BME280;50592;52.958;-7.470;2023-04-21T01:48:57;100832.03;;;6.30;100.00
64253;BME280;50592;52.958;-7.470;2023-04-21T01:51:24;100828.69;;;6.28;100.00
64253;BME280;50592;52.958;-7.470;2023-04-21T01:53:51;100814.59;;;6.29;100.00
64253;BME280;50592;52.958;-7.470;2023-04-21T01:56:17;100817.09;;;6.31;100.00
64253;BME280;50592;52.958;-7.470;2023-04-21T01:58:43;100816.06;;;6.33;100.00
64253;BME280;50592;52.958;-7.470;2023-04-21T02:01:08;100823.41;;;6.41;100.00
64253;BME280;50592;52.958;-7.470;2023-04-21T02:03:34;100814.69;;;6.41;100.00
64253;BME280;50592;52.958;-7.470;2023-04-21T02:06:00;100817.53;;;6.38;100.00
64253;BME280;50592;52.958;-7.470;2023-04-21T02:08:26;100805.78;;;6.30;100.00
64253;BME280;50592;52.958;-7.470;2023-04-21T02:10:51;100805.91;;;6.16;100.00
64253;BME280;50592;52.958;-7.470;2023-04-21T02:13:17;100791.72;;;6.05;100.00
64253;BME280;50592;52.958;-7.470;2023-04-21T02:15:43;100800.34;;;6.07;100.00
64253;BME280;50592;52.958;-7.470;2023-04-21T02:18:09;100791.19;;;6.13;100.00
64253;BME280;50592;52.958;-7.470;2023-04-21T02:20:35;100781.63;;;6.25;100.00
64253;BME280;50592;52.958;-7.470;2023-04-21T02:23:01;100773.31;;;6.31;100.00
64253;BME280;50592;52.958;-7.470;2023-04-21T02:25:27;100772.03;;;6.37;100.00
64253;BME280;50592;52.958;-7.470;2023-04-21T02:27:54;100769.59;;;6.47;100.00
64253;BME280;50592;52.958;-7.470;2023-04-21T02:30:19;100762.47;;;6.49;100.00
64253;BME280;50592;52.958;-7.470;2023-04-21T02:32:45;100753.53;;;6.52;100.00
64253;BME280;50592;52.958;-7.470;2023-04-21T02:35:11;100748.91;;;6.55;100.00
64253;BME280;50592;52.958;-7.470;2023-04-21T02:37:36;100749.53;;;6.59;100.00
64253;BME280;50592;52.958;-7.470;2023-04-21T02:40:03;100750.13;;;6.63;100.00
64253;BME280;50592;52.958;-7.470;2023-04-21T02:42:31;100753.59;;;6.63;100.00
64253;BME280;50592;52.958;-7.470;2023-04-21T02:44:57;100750.13;;;6.63;100.00
64253;BME280;50592;52.958;-7.470;2023-04-21T02:47:22;100755.94;;;6.55;100.00
64253;BME280;50592;52.958;-7.470;2023-04-21T02:49:48;100750.19;;;6.50;100.00
64253;BME280;50592;52.958;-7.470;2023-04-21T02:52:13;100757.56;;;6.44;100.00
64253;BME280;50592;52.958;-7.470;2023-04-21T02:54:40;100749.25;;;6.38;100.00
64253;BME280;50592;52.958;-7.470;2023-04-21T02:57:06;100751.81;;;6.26;100.00
64253;BME280;50592;52.958;-7.470;2023-04-21T02:59:32;100749.09;;;6.15;100.00
64253;BME280;50592;52.958;-7.470;2023-04-21T03:01:58;100748.59;;;6.10;100.00
64253;BME280;50592;52.958;-7.470;2023-04-21T03:04:24;100762.84;;;6.05;100.00
64253;BME280;50592;52.958;-7.470;2023-04-21T03:06:50;100763.88;;;6.03;100.00
64253;BME280;50592;52.958;-7.470;2023-04-21T03:09:16;100761.09;;;6.06;100.00
64253;BME280;50592;52.958;-7.470;2023-04-21T03:11:42;100754.16;;;6.05;100.00
64253;BME280;50592;52.958;-7.470;2023-04-21T03:14:07;100758.84;;;6.00;100.00
64253;BME280;50592;52.958;-7.470;2023-04-21T03:16:33;100748.38;;;6.00;100.00
64253;BME280;50592;52.958;-7.470;2023-04-21T03:18:59;100746.59;;;6.00;100.00
64253;BME280;50592;52.958;-7.470;2023-04-21T03:21:24;100746.28;;;5.92;100.00
64253;BME280;50592;52.958;-7.470;2023-04-21T03:23:51;100742.25;;;5.99;100.00
64253;BME280;50592;52.958;-7.470;2023-04-21T03:26:17;100724.25;;;6.07;100.00
64253;BME280;50592;52.958;-7.470;2023-04-21T03:28:44;100712.56;;;6.12;100.00
64253;BME280;50592;52.958;-7.470;2023-04-21T03:31:09;100711.84;;;6.10;100.00
64253;BME280;50592;52.958;-7.470;2023-04-21T03:33:35;100723.28;;;6.08;100.00
64253;BME280;50592;52.958;-7.470;2023-04-21T03:36:01;100707.41;;;6.10;100.00
64253;BME280;50592;52.958;-7.470;2023-04-21T03:38:28;100709.22;;;6.10;100.00
64253;BME280;50592;52.958;-7.470;2023-04-21T03:40:54;100702.06;;;6.12;100.00
64253;BME280;50592;52.958;-7.470;2023-04-21T03:43:20;100701.03;;;6.14;100.00
64253;BME280;50592;52.958;-7.470;2023-04-21T03:45:45;100703.53;;;6.16;100.00
64253;BME280;50592;52.958;-7.470;2023-04-21T03:48:11;100697.13;;;6.20;100.00
64253;BME280;50592;52.958;-7.470;2023-04-21T03:50:37;100705.84;;;6.20;100.00
64253;BME280;50592;52.958;-7.470;2023-04-21T03:53:02;100706.06;;;6.17;100.00
64253;BME280;50592;52.958;-7.470;2023-04-21T03:55:28;100703.31;;;6.19;100.00
64253;BME280;50592;52.958;-7.470;2023-04-21T03:57:54;100701.34;;;6.23;100.00
64253;BME280;50592;52.958;-7.470;2023-04-21T04:00:20;100706.25;;;6.27;100.00
64253;BME280;50592;52.958;-7.470;2023-04-21T04:02:45;100703.50;;;6.29;100.00
64253;BME280;50592;52.958;-7.470;2023-04-21T04:05:11;100709.81;;;6.26;100.00
64253;BME280;50592;52.958;-7.470;2023-04-21T04:07:37;100698.25;;;6.29;100.00
64253;BME280;50592;52.958;-7.470;2023-04-21T04:10:02;100713.69;;;6.33;100.00
64253;BME280;50592;52.958;-7.470;2023-04-21T04:12:28;100716.31;;;6.33;100.00
64253;BME280;50592;52.958;-7.470;2023-04-21T04:14:55;100721.78;;;6.30;100.00
64253;BME280;50592;52.958;-7.470;2023-04-21T04:17:21;100716.97;;;6.24;100.00
64253;BME280;50592;52.958;-7.470;2023-04-21T04:19:46;100704.16;;;6.19;100.00
64253;BME280;50592;52.958;-7.470;2023-04-21T04:22:12;100693.97;;;6.15;100.00
64253;BME280;50592;52.958;-7.470;2023-04-21T04:24:38;100689.91;;;6.11;100.00
64253;BME280;50592;52.958;-7.470;2023-04-21T04:27:03;100695.47;;;6.06;100.00
64253;BME280;50592;52.958;-7.470;2023-04-21T04:29:30;100689.78;;;5.99;100.00
64253;BME280;50592;52.958;-7.470;2023-04-21T04:31:56;100692.72;;;5.94;100.00
64253;BME280;50592;52.958;-7.470;2023-04-21T04:34:22;100696.53;;;5.90;100.00
64253;BME280;50592;52.958;-7.470;2023-04-21T04:36:48;100693.28;;;5.87;100.00
64253;BME280;50592;52.958;-7.470;2023-04-21T04:39:15;100690.22;;;5.80;100.00
64253;BME280;50592;52.958;-7.470;2023-04-21T04:41:41;100701.78;;;5.77;100.00
64253;BME280;50592;52.958;-7.470;2023-04-21T04:44:07;100689.00;;;5.73;100.00
64253;BME280;50592;52.958;-7.470;2023-04-21T04:46:33;100693.72;;;5.67;100.00
64253;BME280;50592;52.958;-7.470;2023-04-21T04:48:59;100708.63;;;5.67;100.00
64253;BME280;50592;52.958;-7.470;2023-04-21T04:51:26;100694.66;;;5.66;100.00
64253;BME280;50592;52.958;-7.470;2023-04-21T04:53:52;100691.19;;;5.66;100.00
64253;BME280;50592;52.958;-7.470;2023-04-21T04:56:18;100682.91;;;5.59;100.00
64253;BME280;50592;52.958;-7.470;2023-04-21T04:58:43;100678.19;;;5.51;100.00
64253;BME280;50592;52.958;-7.470;2023-04-21T05:01:14;100678.50;;;5.46;100.00
64253;BME280;50592;52.958;-7.470;2023-04-21T05:03:41;100681.44;;;5.42;100.00
64253;BME280;50592;52.958;-7.470;2023-04-21T05:06:07;100685.34;;;5.36;100.00
64253;BME280;50592;52.958;-7.470;2023-04-21T05:08:32;100690.03;;;5.31;100.00
64253;BME280;50592;52.958;-7.470;2023-04-21T05:10:58;100682.50;;;5.26;100.00
64253;BME280;50592;52.958;-7.470;2023-04-21T05:13:24;100684.47;;;5.22;100.00
64253;BME280;50592;52.958;-7.470;2023-04-21T05:15:55;100678.41;;;5.22;100.00
64253;BME280;50592;52.958;-7.470;2023-04-21T05:18:21;100668.25;;;5.17;100.00
64253;BME280;50592;52.958;-7.470;2023-04-21T05:20:47;100674.63;;;5.13;100.00
64253;BME280;50592;52.958;-7.470;2023-04-21T05:23:12;100674.28;;;5.05;100.00
64253;BME280;50592;52.958;-7.470;2023-04-21T05:25:38;100670.59;;;4.94;100.00
64253;BME280;50592;52.958;-7.470;2023-04-21T05:28:04;100679.72;;;4.89;100.00
64253;BME280;50592;52.958;-7.470;2023-04-21T05:30:29;100685.28;;;4.84;100.00
64253;BME280;50592;52.958;-7.470;2023-04-21T05:32:55;100676.75;;;4.80;100.00
64253;BME280;50592;52.958;-7.470;2023-04-21T05:35:21;100672.59;;;4.78;100.00
64253;BME280;50592;52.958;-7.470;2023-04-21T05:37:46;100682.22;;;4.77;100.00
64253;BME280;50592;52.958;-7.470;2023-04-21T05:40:12;100664.78;;;4.76;100.00
64253;BME280;50592;52.958;-7.470;2023-04-21T05:42:38;100659.56;;;4.76;100.00
64253;BME280;50592;52.958;-7.470;2023-04-21T05:45:04;100670.88;;;4.77;100.00
64253;BME280;50592;52.958;-7.470;2023-04-21T05:47:30;100672.66;;;4.76;100.00
64253;BME280;50592;52.958;-7.470;2023-04-21T05:49:55;100682.31;;;4.76;100.00
64253;BME280;50592;52.958;-7.470;2023-04-21T05:52:21;100672.75;;;4.75;100.00
64253;BME280;50592;52.958;-7.470;2023-04-21T05:54:46;100664.53;;;4.81;100.00
64253;BME280;50592;52.958;-7.470;2023-04-21T05:57:12;100659.69;;;4.88;100.00
64253;BME280;50592;52.958;-7.470;2023-04-21T05:59:38;100657.50;;;4.94;100.00
64253;BME280;50592;52.958;-7.470;2023-04-21T06:02:04;100664.75;;;5.04;100.00
64253;BME280;50592;52.958;-7.470;2023-04-21T06:04:29;100653.97;;;5.08;100.00
64253;BME280;50592;52.958;-7.470;2023-04-21T06:06:55;100655.34;;;5.14;100.00
64253;BME280;50592;52.958;-7.470;2023-04-21T06:09:21;100655.66;;;5.22;100.00
64253;BME280;50592;52.958;-7.470;2023-04-21T06:11:46;100645.69;;;5.28;100.00
64253;BME280;50592;52.958;-7.470;2023-04-21T06:14:12;100640.25;;;5.31;100.00
64253;BME280;50592;52.958;-7.470;2023-04-21T06:16:37;100636.59;;;5.33;100.00
64253;BME280;50592;52.958;-7.470;2023-04-21T06:19:03;100619.69;;;5.38;100.00
64253;BME280;50592;52.958;-7.470;2023-04-21T06:21:29;100620.00;;;5.46;100.00
64253;BME280;50592;52.958;-7.470;2023-04-21T06:23:55;100621.03;;;5.56;100.00
64253;BME280;50592;52.958;-7.470;2023-04-21T06:26:20;100625.41;;;5.69;100.00
64253;BME280;50592;52.958;-7.470;2023-04-21T06:28:46;100626.34;;;5.81;100.00
64253;BME280;50592;52.958;-7.470;2023-04-21T06:31:12;100615.81;;;5.94;100.00
64253;BME280;50592;52.958;-7.470;2023-04-21T06:33:41;100611.81;;;6.01;100.00
64253;BME280;50592;52.958;-7.470;2023-04-21T06:36:06;100614.00;;;6.07;100.00
64253;BME280;50592;52.958;-7.470;2023-04-21T06:38:32;100621.34;;;6.15;100.00
64253;BME280;50592;52.958;-7.470;2023-04-21T06:40:58;100622.59;;;6.23;100.00
64253;BME280;50592;52.958;-7.470;2023-04-21T06:43:24;100628.81;;;6.33;100.00
64253;BME280;50592;52.958;-7.470;2023-04-21T06:45:49;100628.66;;;6.48;100.00
64253;BME280;50592;52.958;-7.470;2023-04-21T06:48:15;100628.94;;;6.56;100.00
64253;BME280;50592;52.958;-7.470;2023-04-21T06:50:41;100635.06;;;6.68;100.00
64253;BME280;50592;52.958;-7.470;2023-04-21T06:53:09;100636.59;;;6.70;100.00
64253;BME280;50592;52.958;-7.470;2023-04-21T06:55:35;100639.34;;;6.69;100.00
64253;BME280;50592;52.958;-7.470;2023-04-21T06:58:01;100634.72;;;6.73;100.00
64253;BME280;50592;52.958;-7.470;2023-04-21T07:00:27;100625.09;;;6.85;100.00
64253;BME280;50592;52.958;-7.470;2023-04-21T07:02:53;100624.38;;;6.94;100.00
64253;BME280;50592;52.958;-7.470;2023-04-21T07:05:18;100619.13;;;6.94;100.00
64253;BME280;50592;52.958;-7.470;2023-04-21T07:07:44;100615.66;;;6.93;100.00
64253;BME280;50592;52.958;-7.470;2023-04-21T07:10:10;100610.63;;;6.90;100.00
64253;BME280;50592;52.958;-7.470;2023-04-21T07:12:35;100601.09;;;7.01;100.00
64253;BME280;50592;52.958;-7.470;2023-04-21T07:15:01;100600.03;;;7.26;100.00
64253;BME280;50592;52.958;-7.470;2023-04-21T07:17:27;100603.03;;;7.56;100.00
64253;BME280;50592;52.958;-7.470;2023-04-21T07:19:53;100603.38;;;7.74;100.00
64253;BME280;50592;52.958;-7.470;2023-04-21T07:22:18;100602.97;;;7.90;100.00
64253;BME280;50592;52.958;-7.470;2023-04-21T07:24:44;100591.75;;;7.88;100.00
64253;BME280;50592;52.958;-7.470;2023-04-21T07:27:09;100589.94;;;8.00;100.00
64253;BME280;50592;52.958;-7.470;2023-04-21T07:29:35;100578.28;;;8.14;100.00
64253;BME280;50592;52.958;-7.470;2023-04-21T07:32:01;100573.31;;;8.32;100.00
64253;BME280;50592;52.958;-7.470;2023-04-21T07:34:27;100562.06;;;8.30;100.00
64253;BME280;50592;52.958;-7.470;2023-04-21T07:36:55;100573.84;;;8.15;100.00
64253;BME280;50592;52.958;-7.470;2023-04-21T07:39:21;100574.69;;;8.15;100.00
64253;BME280;50592;52.958;-7.470;2023-04-21T07:41:47;100574.84;;;8.35;100.00
64253;BME280;50592;52.958;-7.470;2023-04-21T07:44:12;100576.38;;;8.38;100.00
64253;BME280;50592;52.958;-7.470;2023-04-21T07:46:38;100575.72;;;8.57;100.00
64253;BME280;50592;52.958;-7.470;2023-04-21T07:49:04;100582.84;;;8.66;100.00
64253;BME280;50592;52.958;-7.470;2023-04-21T07:51:29;100579.16;;;8.69;100.00
64253;BME280;50592;52.958;-7.470;2023-04-21T07:53:56;100569.81;;;8.65;100.00
64253;BME280;50592;52.958;-7.470;2023-04-21T07:56:22;100572.16;;;8.58;100.00
64253;BME280;50592;52.958;-7.470;2023-04-21T07:58:47;100563.41;;;8.58;100.00
64253;BME280;50592;52.958;-7.470;2023-04-21T08:01:13;100573.09;;;8.57;100.00
64253;BME280;50592;52.958;-7.470;2023-04-21T08:03:38;100570.56;;;8.55;100.00
64253;BME280;50592;52.958;-7.470;2023-04-21T08:06:04;100560.50;;;8.61;100.00
64253;BME280;50592;52.958;-7.470;2023-04-21T08:08:30;100552.94;;;8.67;100.00
64253;BME280;50592;52.958;-7.470;2023-04-21T08:10:55;100543.19;;;8.68;100.00
64253;BME280;50592;52.958;-7.470;2023-04-21T08:13:21;100529.66;;;8.73;100.00
64253;BME280;50592;52.958;-7.470;2023-04-21T08:15:50;100540.22;;;8.83;100.00
64253;BME280;50592;52.958;-7.470;2023-04-21T08:18:15;100534.88;;;8.94;100.00
64253;BME280;50592;52.958;-7.470;2023-04-21T08:20:43;100536.88;;;9.02;100.00
64253;BME280;50592;52.958;-7.470;2023-04-21T08:23:09;100536.50;;;9.16;100.00
64253;BME280;50592;52.958;-7.470;2023-04-21T08:25:35;100531.19;;;9.38;100.00
64253;BME280;50592;52.958;-7.470;2023-04-21T08:28:01;100531.41;;;9.25;100.00
64253;BME280;50592;52.958;-7.470;2023-04-21T08:30:27;100529.91;;;9.32;100.00
64253;BME280;50592;52.958;-7.470;2023-04-21T08:32:52;100516.53;;;9.24;100.00
64253;BME280;50592;52.958;-7.470;2023-04-21T08:35:18;100513.31;;;9.10;100.00
64253;BME280;50592;52.958;-7.470;2023-04-21T08:37:44;100524.22;;;8.96;100.00
64253;BME280;50592;52.958;-7.470;2023-04-21T08:40:10;100525.13;;;8.85;100.00
64253;BME280;50592;52.958;-7.470;2023-04-21T08:42:36;100509.84;;;8.78;100.00
64253;BME280;50592;52.958;-7.470;2023-04-21T08:45:02;100514.78;;;8.72;100.00
64253;BME280;50592;52.958;-7.470;2023-04-21T08:47:28;100514.47;;;8.65;100.00
64253;BME280;50592;52.958;-7.470;2023-04-21T08:49:54;100514.94;;;8.70;100.00
64253;BME280;50592;52.958;-7.470;2023-04-21T08:52:21;100509.84;;;8.78;100.00
64253;BME280;50592;52.958;-7.470;2023-04-21T08:54:47;100518.06;;;8.85;100.00
64253;BME280;50592;52.958;-7.470;2023-04-21T08:57:16;100518.34;;;8.92;100.00
64253;BME280;50592;52.958;-7.470;2023-04-21T08:59:43;100520.78;;;9.05;100.00
64253;BME280;50592;52.958;-7.470;2023-04-21T09:02:13;100510.22;;;9.05;100.00
64253;BME280;50592;52.958;-7.470;2023-04-21T09:04:49;100510.41;;;9.13;100.00
64253;BME280;50592;52.958;-7.470;2023-04-21T09:10:01;100499.31;;;9.20;100.00
64253;BME280;50592;52.958;-7.470;2023-04-21T09:12:28;100512.84;;;9.36;100.00
64253;BME280;50592;52.958;-7.470;2023-04-21T09:14:53;100505.50;;;9.50;100.00
64253;BME280;50592;52.958;-7.470;2023-04-21T09:17:29;100497.03;;;9.56;100.00
64253;BME280;50592;52.958;-7.470;2023-04-21T09:20:17;100501.38;;;9.57;100.00
64253;BME280;50592;52.958;-7.470;2023-04-21T09:22:43;100485.69;;;9.75;100.00
64253;BME280;50592;52.958;-7.470;2023-04-21T09:25:09;100480.25;;;9.67;100.00
64253;BME280;50592;52.958;-7.470;2023-04-21T09:27:35;100462.75;;;9.96;100.00
64253;BME280;50592;52.958;-7.470;2023-04-21T09:30:04;100448.69;;;10.25;100.00
64253;BME280;50592;52.958;-7.470;2023-04-21T09:32:38;100436.13;;;10.37;100.00
64253;BME280;50592;52.958;-7.470;2023-04-21T09:35:04;100435.31;;;10.36;100.00
64253;BME280;50592;52.958;-7.470;2023-04-21T09:37:31;100449.09;;;10.40;100.00
64253;BME280;50592;52.958;-7.470;2023-04-21T09:40:01;100447.91;;;10.62;100.00
64253;BME280;50592;52.958;-7.470;2023-04-21T09:42:29;100430.41;;;10.61;100.00
64253;BME280;50592;52.958;-7.470;2023-04-21T09:44:55;100431.25;;;10.62;100.00
64253;BME280;50592;52.958;-7.470;2023-04-21T09:47:20;100439.94;;;10.72;100.00
64253;BME280;50592;52.958;-7.470;2023-04-21T09:49:46;100441.19;;;10.78;100.00
64253;BME280;50592;52.958;-7.470;2023-04-21T09:52:15;100437.72;;;10.77;100.00
64253;BME280;50592;52.958;-7.470;2023-04-21T09:54:48;100442.91;;;10.97;100.00
64253;BME280;50592;52.958;-7.470;2023-04-21T09:57:16;100436.66;;;11.16;100.00
64253;BME280;50592;52.958;-7.470;2023-04-21T09:59:45;100415.38;;;11.36;100.00
64253;BME280;50592;52.958;-7.470;2023-04-21T10:02:12;100421.13;;;11.50;100.00
64253;BME280;50592;52.958;-7.470;2023-04-21T10:04:38;100412.13;;;11.43;100.00
64253;BME280;50592;52.958;-7.470;2023-04-21T10:07:05;100431.25;;;11.36;100.00
64253;BME280;50592;52.958;-7.470;2023-04-21T10:09:37;100423.81;;;11.03;100.00
64253;BME280;50592;52.958;-7.470;2023-04-21T10:12:05;100410.41;;;11.33;100.00
64253;BME280;50592;52.958;-7.470;2023-04-21T10:14:30;100407.91;;;11.32;100.00
64253;BME280;50592;52.958;-7.470;2023-04-21T10:16:57;100408.44;;;11.53;100.00
64253;BME280;50592;52.958;-7.470;2023-04-21T10:19:28;100413.03;;;11.88;100.00
64253;BME280;50592;52.958;-7.470;2023-04-21T10:21:56;100408.50;;;11.80;100.00
64253;BME280;50592;52.958;-7.470;2023-04-21T10:24:23;100403.13;;;11.72;100.00
64253;BME280;50592;52.958;-7.470;2023-04-21T10:26:49;100399.06;;;11.59;100.00
64253;BME280;50592;52.958;-7.470;2023-04-21T10:29:14;100396.72;;;11.56;100.00
64253;BME280;50592;52.958;-7.470;2023-04-21T10:41:50;100389.72;;;11.00;100.00
64253;BME280;50592;52.958;-7.470;2023-04-21T10:44:20;100379.00;;;11.02;100.00
64253;BME280;50592;52.958;-7.470;2023-04-21T10:46:50;100376.50;;;11.19;100.00
64253;BME280;50592;52.958;-7.470;2023-04-21T10:57:04;100348.25;;;11.19;100.00
64253;BME280;50592;52.958;-7.470;2023-04-21T10:59:30;100348.03;;;11.31;100.00
64253;BME280;50592;52.958;-7.470;2023-04-21T11:01:56;100340.00;;;11.22;100.00
64253;BME280;50592;52.958;-7.470;2023-04-21T11:04:21;100341.50;;;11.25;100.00
64253;BME280;50592;52.958;-7.470;2023-04-21T11:09:32;100331.50;;;11.55;100.00
64253;BME280;50592;52.958;-7.470;2023-04-21T11:11:58;100324.78;;;11.61;100.00
64253;BME280;50592;52.958;-7.470;2023-04-21T11:14:24;100315.38;;;11.66;100.00
64253;BME280;50592;52.958;-7.470;2023-04-21T11:16:50;100315.69;;;11.90;100.00
64253;BME280;50592;52.958;-7.470;2023-04-21T11:19:16;100289.25;;;11.98;100.00
64253;BME280;50592;52.958;-7.470;2023-04-21T11:21:41;100296.56;;;12.04;100.00
64253;BME280;50592;52.958;-7.470;2023-04-21T11:24:07;100293.69;;;12.16;100.00
64253;BME280;50592;52.958;-7.470;2023-04-21T11:26:34;100295.66;;;12.14;100.00
64253;BME280;50592;52.958;-7.470;2023-04-21T11:29:00;100286.91;;;12.13;100.00
64253;BME280;50592;52.958;-7.470;2023-04-21T11:31:27;100280.16;;;12.27;100.00
64253;BME280;50592;52.958;-7.470;2023-04-21T11:33:54;100284.19;;;12.40;100.00
64253;BME280;50592;52.958;-7.470;2023-04-21T11:36:20;100287.53;;;12.59;100.00
64253;BME280;50592;52.958;-7.470;2023-04-21T11:38:46;100273.28;;;12.51;100.00
64253;BME280;50592;52.958;-7.470;2023-04-21T11:41:12;100277.00;;;12.24;100.00
64253;BME280;50592;52.958;-7.470;2023-04-21T11:43:44;100291.72;;;12.18;100.00
64253;BME280;50592;52.958;-7.470;2023-04-21T11:48:43;100289.91;;;12.27;100.00
64253;BME280;50592;52.958;-7.470;2023-04-21T11:51:15;100294.47;;;12.43;100.00
64253;BME280;50592;52.958;-7.470;2023-04-21T11:53:41;100280.19;;;12.36;100.00
64253;BME280;50592;52.958;-7.470;2023-04-21T11:56:08;100272.03;;;12.29;100.00
64253;BME280;50592;52.958;-7.470;2023-04-21T11:58:33;100246.56;;;12.36;100.00
64253;BME280;50592;52.958;-7.470;2023-04-21T12:01:05;100246.78;;;12.51;100.00
64253;BME280;50592;52.958;-7.470;2023-04-21T12:03:31;100252.06;;;12.51;100.00
64253;BME280;50592;52.958;-7.470;2023-04-21T12:05:57;100258.72;;;12.64;100.00
64253;BME280;50592;52.958;-7.470;2023-04-21T12:08:23;100259.88;;;12.70;100.00
64253;BME280;50592;52.958;-7.470;2023-04-21T12:10:48;100254.78;;;12.76;100.00
64253;BME280;50592;52.958;-7.470;2023-04-21T12:13:26;100260.09;;;12.93;100.00
64253;BME280;50592;52.958;-7.470;2023-04-21T12:15:52;100215.97;;;12.92;100.00
64253;BME280;50592;52.958;-7.470;2023-04-21T12:18:18;100239.38;;;12.80;100.00
64253;BME280;50592;52.958;-7.470;2023-04-21T12:20:47;100232.41;;;13.04;100.00
64253;BME280;50592;52.958;-7.470;2023-04-21T12:23:13;100232.41;;;12.96;100.00
64253;BME280;50592;52.958;-7.470;2023-04-21T12:25:39;100235.06;;;12.96;100.00
64253;BME280;50592;52.958;-7.470;2023-04-21T12:28:05;100228.75;;;12.72;100.00
64253;BME280;50592;52.958;-7.470;2023-04-21T12:30:32;100227.75;;;13.06;100.00
64253;BME280;50592;52.958;-7.470;2023-04-21T12:32:58;100214.81;;;13.28;100.00
64253;BME280;50592;52.958;-7.470;2023-04-21T12:35:24;100208.31;;;13.56;100.00
64253;BME280;50592;52.958;-7.470;2023-04-21T12:37:50;100214.97;;;13.51;100.00
64253;BME280;50592;52.958;-7.470;2023-04-21T12:40:15;100210.31;;;13.54;100.00
64253;BME280;50592;52.958;-7.470;2023-04-21T12:42:41;100215.44;;;13.47;100.00
64253;BME280;50592;52.958;-7.470;2023-04-21T12:45:07;100198.34;;;13.49;100.00
64253;BME280;50592;52.958;-7.470;2023-04-21T12:47:33;100205.78;;;13.71;100.00
64253;BME280;50592;52.958;-7.470;2023-04-21T12:49:59;100179.75;;;13.66;100.00
64253;BME280;50592;52.958;-7.470;2023-04-21T12:52:24;100186.38;;;13.62;100.00
64253;BME280;50592;52.958;-7.470;2023-04-21T12:54:51;100163.84;;;13.58;100.00
64253;BME280;50592;52.958;-7.470;2023-04-21T12:57:16;100188.34;;;13.68;100.00
64253;BME280;50592;52.958;-7.470;2023-04-21T12:59:42;100161.78;;;13.68;100.00